createdAt,value
2017-11-15T00:00:50.361Z,1005.8
2017-11-15T00:01:52.091Z,1005.8
2017-11-15T00:02:53.902Z,1005.9
2017-11-15T00:03:56.136Z,1005.8
2017-11-15T00:04:57.760Z,1005.9
2017-11-15T00:05:59.560Z,1005.8
2017-11-15T00:07:01.088Z,1005.8
2017-11-15T00:08:03.180Z,1005.9
2017-11-15T00:09:04.731Z,1005.8
2017-11-15T00:10:06.412Z,1005.8
2017-11-15T00:11:07.898Z,1005.8
2017-11-15T00:12:09.424Z,1005.8
2017-11-15T00:13:11.023Z,1005.8
2017-11-15T00:14:12.709Z,1005.9
2017-11-15T00:15:14.210Z,1005.9
2017-11-15T00:16:15.759Z,1005.9
2017-11-15T00:17:17.204Z,1005.9
2017-11-15T00:18:18.784Z,1005.9
2017-11-15T00:19:20.385Z,1005.9
2017-11-15T00:20:21.904Z,1005.9
2017-11-15T00:21:23.372Z,1005.9
2017-11-15T00:22:24.847Z,1005.9
2017-11-15T00:23:26.287Z,1005.9
2017-11-15T00:24:27.810Z,1005.9
2017-11-15T00:25:29.359Z,1005.9
2017-11-15T00:26:30.817Z,1005.9
2017-11-15T00:27:32.312Z,1005.9
2017-11-15T00:28:33.776Z,1005.9
2017-11-15T00:29:35.300Z,1005.9
2017-11-15T00:30:37.308Z,1005.9
2017-11-15T00:31:38.882Z,1005.9
2017-11-15T00:32:40.448Z,1006.0
2017-11-15T00:33:42.040Z,1005.9
2017-11-15T00:34:43.519Z,1005.9
2017-11-15T00:35:45.049Z,1005.9
2017-11-15T00:36:46.769Z,1005.9
2017-11-15T00:37:48.865Z,1005.9
2017-11-15T00:39:30.135Z,1005.9
2017-11-15T00:40:31.731Z,1005.9
2017-11-15T00:41:33.134Z,1005.9
2017-11-15T00:42:34.583Z,1005.9
2017-11-15T00:43:36.054Z,1005.9
2017-11-15T00:44:37.902Z,1006.0
2017-11-15T00:45:40.235Z,1005.9
2017-11-15T00:46:41.769Z,1006.0
2017-11-15T00:47:43.265Z,1006.0
2017-11-15T00:48:45.028Z,1006.0
2017-11-15T00:49:46.944Z,1006.0
2017-11-15T00:50:48.476Z,1006.0
2017-11-15T00:51:49.983Z,1006.0
2017-11-15T00:52:51.473Z,1005.9
2017-11-15T00:53:53.125Z,1005.9
2017-11-15T00:54:54.650Z,1006.0
2017-11-15T00:55:56.171Z,1005.9
2017-11-15T00:56:57.686Z,1005.9
2017-11-15T00:57:59.182Z,1005.9
2017-11-15T00:59:00.716Z,1005.9
2017-11-15T01:00:02.282Z,1005.9
2017-11-15T01:01:03.741Z,1005.9
2017-11-15T01:02:05.233Z,1006.0
2017-11-15T01:03:06.741Z,1006.0
2017-11-15T01:04:08.300Z,1006.0
2017-11-15T01:05:09.894Z,1006.0
2017-11-15T01:06:11.562Z,1006.0
2017-11-15T01:07:13.087Z,1006.0
2017-11-15T01:08:14.642Z,1006.0
2017-11-15T01:09:16.168Z,1006.0
2017-11-15T01:10:17.618Z,1006.0
2017-11-15T01:11:19.088Z,1006.0
2017-11-15T01:12:20.597Z,1006.0
2017-11-15T01:13:22.099Z,1006.0
2017-11-15T01:14:23.686Z,1006.0
2017-11-15T01:15:25.226Z,1006.0
2017-11-15T01:16:26.770Z,1006.0
2017-11-15T01:17:28.223Z,1006.1
2017-11-15T01:18:29.729Z,1006.1
2017-11-15T01:19:31.211Z,1006.0
2017-11-15T01:20:32.758Z,1006.1
2017-11-15T01:21:34.381Z,1006.1
2017-11-15T01:22:35.905Z,1006.1
2017-11-15T01:23:37.402Z,1006.1
2017-11-15T01:24:39.017Z,1006.1
2017-11-15T01:25:40.579Z,1006.1
2017-11-15T01:26:42.041Z,1006.1
2017-11-15T01:27:43.442Z,1006.1
2017-11-15T01:28:44.961Z,1006.1
2017-11-15T01:29:46.513Z,1006.1
2017-11-15T01:30:48.098Z,1006.1
2017-11-15T01:31:49.699Z,1006.0
2017-11-15T01:32:51.208Z,1006.0
2017-11-15T01:33:52.675Z,1006.1
2017-11-15T01:34:54.366Z,1006.1
2017-11-15T01:35:55.773Z,1006.1
2017-11-15T01:36:57.346Z,1006.1
2017-11-15T01:37:58.887Z,1006.1
2017-11-15T01:39:00.506Z,1006.1
2017-11-15T01:40:02.076Z,1006.0
2017-11-15T01:41:03.577Z,1006.0
2017-11-15T01:42:05.111Z,1006.1
2017-11-15T01:43:06.648Z,1006.0
2017-11-15T01:44:08.115Z,1006.1
2017-11-15T01:45:09.626Z,1006.0
2017-11-15T01:46:11.152Z,1006.0
2017-11-15T01:47:12.637Z,1006.0
2017-11-15T01:48:14.276Z,1006.0
2017-11-15T01:49:15.805Z,1006.0
2017-11-15T01:50:17.338Z,1006.0
2017-11-15T01:51:18.804Z,1006.0
2017-11-15T01:52:20.278Z,1006.0
2017-11-15T01:53:21.703Z,1006.0
2017-11-15T01:54:23.253Z,1006.0
2017-11-15T01:55:24.734Z,1006.0
2017-11-15T01:56:26.260Z,1006.0
2017-11-15T01:57:27.755Z,1006.0
2017-11-15T01:58:29.304Z,1006.0
2017-11-15T01:59:30.744Z,1006.0
2017-11-15T02:00:32.393Z,1006.0
2017-11-15T02:01:33.870Z,1006.0
2017-11-15T02:02:35.384Z,1006.0
2017-11-15T02:03:36.867Z,1006.0
2017-11-15T02:04:38.378Z,1006.0
2017-11-15T02:05:39.898Z,1006.0
2017-11-15T02:06:41.429Z,1006.0
2017-11-15T02:07:42.931Z,1006.0
2017-11-15T02:08:44.362Z,1005.9
2017-11-15T02:09:45.857Z,1005.9
2017-11-15T02:10:47.339Z,1006.0
2017-11-15T02:11:48.831Z,1005.9
2017-11-15T02:12:50.347Z,1005.9
2017-11-15T02:13:51.887Z,1006.0
2017-11-15T02:14:53.351Z,1006.0
2017-11-15T02:15:54.919Z,1005.9
2017-11-15T02:16:56.419Z,1006.0
2017-11-15T02:17:57.932Z,1005.9
2017-11-15T02:18:59.413Z,1006.0
2017-11-15T02:20:00.878Z,1005.9
2017-11-15T02:21:02.334Z,1006.0
2017-11-15T02:22:03.795Z,1006.0
2017-11-15T02:23:05.272Z,1006.0
2017-11-15T02:24:06.852Z,1006.0
2017-11-15T02:25:08.254Z,1006.0
2017-11-15T02:26:09.743Z,1006.0
2017-11-15T02:27:11.220Z,1006.0
2017-11-15T02:28:12.714Z,1006.0
2017-11-15T02:29:14.218Z,1006.0
2017-11-15T02:30:15.803Z,1006.0
2017-11-15T02:31:17.249Z,1006.0
2017-11-15T02:32:18.789Z,1006.0
2017-11-15T02:33:20.297Z,1006.0
2017-11-15T02:34:21.793Z,1006.0
2017-11-15T02:35:23.342Z,1006.0
2017-11-15T02:36:24.824Z,1006.0
2017-11-15T02:37:26.412Z,1005.9
2017-11-15T02:38:27.970Z,1006.0
2017-11-15T02:39:29.478Z,1005.9
2017-11-15T02:40:31.013Z,1006.0
2017-11-15T02:41:32.483Z,1006.0
2017-11-15T02:42:34.029Z,1006.0
2017-11-15T02:43:35.601Z,1006.0
2017-11-15T02:44:37.135Z,1006.0
2017-11-15T02:45:38.659Z,1006.0
2017-11-15T02:46:40.138Z,1006.0
2017-11-15T02:47:41.668Z,1006.0
2017-11-15T02:48:43.178Z,1005.9
2017-11-15T02:49:44.705Z,1006.0
2017-11-15T02:50:46.199Z,1006.0
2017-11-15T02:51:47.662Z,1005.9
2017-11-15T02:52:49.163Z,1005.9
2017-11-15T02:53:50.741Z,1005.9
2017-11-15T02:54:52.186Z,1005.9
2017-11-15T02:55:53.672Z,1005.9
2017-11-15T02:56:55.157Z,1005.9
2017-11-15T02:57:56.641Z,1005.9
2017-11-15T02:58:58.121Z,1005.9
2017-11-15T02:59:59.674Z,1005.9
2017-11-15T03:01:01.171Z,1005.9
2017-11-15T03:02:02.625Z,1005.9
2017-11-15T03:03:04.077Z,1005.9
2017-11-15T03:04:05.559Z,1005.9
2017-11-15T03:05:07.033Z,1005.9
2017-11-15T03:06:08.487Z,1005.9
2017-11-15T03:07:09.994Z,1005.9
2017-11-15T03:08:11.462Z,1005.9
2017-11-15T03:09:12.972Z,1005.8
2017-11-15T03:10:14.507Z,1005.9
2017-11-15T03:11:15.966Z,1005.9
2017-11-15T03:12:17.441Z,1005.9
2017-11-15T03:13:18.969Z,1005.9
2017-11-15T03:14:20.465Z,1005.9
2017-11-15T03:15:21.932Z,1005.9
2017-11-15T03:16:23.517Z,1005.9
2017-11-15T03:17:25.059Z,1005.9
2017-11-15T03:18:26.552Z,1005.9
2017-11-15T03:19:28.048Z,1005.9
2017-11-15T03:20:29.599Z,1005.9
2017-11-15T03:21:31.244Z,1005.9
2017-11-15T03:22:32.725Z,1005.9
2017-11-15T03:23:34.232Z,1005.8
2017-11-15T03:24:35.698Z,1005.9
2017-11-15T03:25:37.159Z,1005.9
2017-11-15T03:26:38.916Z,1005.9
2017-11-15T03:27:40.369Z,1006.0
2017-11-15T03:28:41.925Z,1005.9
2017-11-15T03:29:43.397Z,1005.9
2017-11-15T03:30:44.879Z,1005.9
2017-11-15T03:31:46.399Z,1005.9
2017-11-15T03:32:48.061Z,1005.9
2017-11-15T03:33:49.676Z,1005.9
2017-11-15T03:34:51.151Z,1005.8
2017-11-15T03:35:52.646Z,1005.9
2017-11-15T03:36:54.175Z,1005.9
2017-11-15T03:37:55.647Z,1005.9
2017-11-15T03:38:57.174Z,1005.9
2017-11-15T03:39:58.684Z,1005.9
2017-11-15T03:41:00.189Z,1005.9
2017-11-15T03:42:01.794Z,1005.9
2017-11-15T03:43:03.272Z,1005.9
2017-11-15T03:44:04.727Z,1005.9
2017-11-15T03:45:06.228Z,1005.9
2017-11-15T03:46:07.745Z,1005.9
2017-11-15T03:47:09.189Z,1005.9
2017-11-15T03:48:10.652Z,1005.9
2017-11-15T03:49:12.115Z,1005.9
2017-11-15T03:50:13.618Z,1005.9
2017-11-15T03:51:15.088Z,1005.9
2017-11-15T03:52:16.614Z,1005.9
2017-11-15T03:53:18.083Z,1005.9
2017-11-15T03:54:19.574Z,1005.9
2017-11-15T03:55:21.098Z,1005.9
2017-11-15T03:56:22.674Z,1005.9
2017-11-15T03:57:24.215Z,1005.9
2017-11-15T03:58:25.750Z,1005.9
2017-11-15T03:59:27.272Z,1005.9
2017-11-15T04:00:28.753Z,1005.9
2017-11-15T04:01:30.237Z,1005.9
2017-11-15T04:02:31.774Z,1005.9
2017-11-15T04:03:33.326Z,1005.9
2017-11-15T04:04:34.809Z,1005.9
2017-11-15T04:05:36.355Z,1005.9
2017-11-15T04:06:37.870Z,1005.9
2017-11-15T04:07:39.420Z,1006.0
2017-11-15T04:08:40.929Z,1005.9
2017-11-15T04:09:42.385Z,1005.9
2017-11-15T04:10:43.912Z,1005.9
2017-11-15T04:11:45.438Z,1005.8
2017-11-15T04:12:46.955Z,1005.8
2017-11-15T04:13:48.509Z,1005.8
2017-11-15T04:14:50.015Z,1005.8
2017-11-15T04:15:51.502Z,1005.8
2017-11-15T04:16:53.101Z,1005.8
2017-11-15T04:17:54.591Z,1005.8
2017-11-15T04:18:56.112Z,1005.8
2017-11-15T04:19:57.581Z,1005.8
2017-11-15T04:20:59.131Z,1005.8
2017-11-15T04:22:00.555Z,1005.8
2017-11-15T04:23:02.043Z,1005.8
2017-11-15T04:24:03.597Z,1005.8
2017-11-15T04:25:05.250Z,1005.9
2017-11-15T04:26:06.776Z,1005.9
2017-11-15T04:27:08.278Z,1005.9
2017-11-15T04:28:09.789Z,1005.8
2017-11-15T04:29:11.307Z,1005.9
2017-11-15T04:30:12.875Z,1005.8
2017-11-15T04:31:14.419Z,1005.9
2017-11-15T04:32:15.876Z,1005.9
2017-11-15T04:33:17.523Z,1005.8
2017-11-15T04:34:19.143Z,1005.9
2017-11-15T04:35:20.630Z,1005.9
2017-11-15T04:36:22.151Z,1005.9
2017-11-15T04:37:23.706Z,1005.8
2017-11-15T04:38:25.185Z,1005.9
2017-11-15T04:39:26.804Z,1005.9
2017-11-15T04:40:28.354Z,1005.9
2017-11-15T04:41:29.857Z,1005.9
2017-11-15T04:42:31.450Z,1005.8
2017-11-15T04:43:32.960Z,1005.8
2017-11-15T04:44:34.420Z,1005.8
2017-11-15T04:45:35.965Z,1005.8
2017-11-15T04:46:37.594Z,1005.8
2017-11-15T04:47:39.151Z,1005.8
2017-11-15T04:48:40.894Z,1005.9
2017-11-15T04:49:42.507Z,1005.8
2017-11-15T04:50:43.996Z,1005.8
2017-11-15T04:51:45.489Z,1005.8
2017-11-15T04:52:47.035Z,1005.8
2017-11-15T04:53:48.588Z,1005.8
2017-11-15T04:54:50.062Z,1005.9
2017-11-15T04:55:51.736Z,1005.9
2017-11-15T04:56:53.326Z,1005.9
2017-11-15T04:57:54.823Z,1005.9
2017-11-15T04:58:56.333Z,1005.9
2017-11-15T04:59:57.780Z,1006.0
2017-11-15T05:00:59.349Z,1006.0
2017-11-15T05:02:00.840Z,1005.9
2017-11-15T05:03:02.316Z,1005.9
2017-11-15T05:04:03.866Z,1006.0
2017-11-15T05:05:05.373Z,1005.9
2017-11-15T05:06:06.826Z,1006.0
2017-11-15T05:07:08.466Z,1006.0
2017-11-15T05:08:10.105Z,1006.0
2017-11-15T05:09:11.552Z,1006.0
2017-11-15T05:10:13.106Z,1006.0
2017-11-15T05:11:14.626Z,1006.0
2017-11-15T05:12:16.170Z,1006.1
2017-11-15T05:13:17.743Z,1006.0
2017-11-15T05:14:19.382Z,1006.0
2017-11-15T05:15:21.059Z,1006.1
2017-11-15T05:16:22.663Z,1006.0
2017-11-15T05:17:24.213Z,1006.1
2017-11-15T05:18:25.844Z,1006.1
2017-11-15T05:19:27.370Z,1006.1
2017-11-15T05:20:28.884Z,1006.1
2017-11-15T05:21:30.370Z,1006.1
2017-11-15T05:22:31.906Z,1006.1
2017-11-15T05:23:33.461Z,1006.1
2017-11-15T05:24:35.037Z,1006.1
2017-11-15T05:25:36.556Z,1006.1
2017-11-15T05:26:38.120Z,1006.1
2017-11-15T05:27:39.683Z,1006.1
2017-11-15T05:28:41.162Z,1006.1
2017-11-15T05:29:42.752Z,1006.1
2017-11-15T05:30:44.265Z,1006.1
2017-11-15T05:31:45.806Z,1006.1
2017-11-15T05:32:47.498Z,1006.1
2017-11-15T05:33:49.414Z,1006.1
2017-11-15T05:34:51.049Z,1006.1
2017-11-15T05:35:52.650Z,1006.1
2017-11-15T05:36:54.145Z,1006.1
2017-11-15T05:37:55.657Z,1006.1
2017-11-15T05:38:57.177Z,1006.1
2017-11-15T05:39:58.815Z,1006.1
2017-11-15T05:41:00.310Z,1006.1
2017-11-15T05:42:01.952Z,1006.1
2017-11-15T05:43:03.431Z,1006.2
2017-11-15T05:44:05.190Z,1006.1
2017-11-15T05:45:06.734Z,1006.2
2017-11-15T05:46:08.253Z,1006.2
2017-11-15T05:47:09.760Z,1006.2
2017-11-15T05:48:11.343Z,1006.2
2017-11-15T05:49:13.090Z,1006.2
2017-11-15T05:50:14.609Z,1006.2
2017-11-15T05:51:16.187Z,1006.2
2017-11-15T05:52:17.837Z,1006.2
2017-11-15T05:53:19.816Z,1006.2
2017-11-15T05:54:21.341Z,1006.2
2017-11-15T05:55:22.856Z,1006.2
2017-11-15T05:56:24.561Z,1006.2
2017-11-15T05:57:26.048Z,1006.2
2017-11-15T05:58:27.664Z,1006.2
2017-11-15T05:59:29.327Z,1006.2
2017-11-15T06:00:30.918Z,1006.2
2017-11-15T06:01:32.463Z,1006.2
2017-11-15T06:02:33.970Z,1006.2
2017-11-15T06:03:35.582Z,1006.2
2017-11-15T06:04:37.116Z,1006.2
2017-11-15T06:05:38.579Z,1006.2
2017-11-15T06:06:40.326Z,1006.2
2017-11-15T06:07:42.601Z,1006.3
2017-11-15T06:08:48.171Z,1006.3
2017-11-15T06:09:50.025Z,1006.3
2017-11-15T06:10:51.817Z,1006.3
2017-11-15T06:11:53.532Z,1006.3
2017-11-15T06:12:55.282Z,1006.4
2017-11-15T06:13:56.701Z,1006.3
2017-11-15T06:14:58.206Z,1006.3
2017-11-15T06:15:59.852Z,1006.3
2017-11-15T06:17:01.875Z,1006.3
2017-11-15T06:18:03.389Z,1006.3
2017-11-15T06:19:06.148Z,1006.4
2017-11-15T06:20:14.838Z,1006.4
2017-11-15T06:21:18.718Z,1006.3
2017-11-15T06:22:27.319Z,1006.3
2017-11-15T06:23:29.039Z,1006.3
2017-11-15T06:24:30.545Z,1006.3
2017-11-15T06:25:32.153Z,1006.3
2017-11-15T06:26:33.603Z,1006.3
2017-11-15T06:27:35.144Z,1006.3
2017-11-15T06:28:36.684Z,1006.4
2017-11-15T06:29:38.318Z,1006.4
2017-11-15T06:30:39.836Z,1006.4
2017-11-15T06:31:41.849Z,1006.4
2017-11-15T06:32:43.443Z,1006.4
2017-11-15T06:33:45.098Z,1006.4
2017-11-15T06:34:47.634Z,1006.4
2017-11-15T06:35:49.185Z,1006.4
2017-11-15T06:36:51.039Z,1006.4
2017-11-15T06:37:52.549Z,1006.5
2017-11-15T06:38:54.137Z,1006.5
2017-11-15T06:39:55.815Z,1006.4
2017-11-15T06:40:57.541Z,1006.4
2017-11-15T06:42:01.521Z,1006.4
2017-11-15T06:43:03.856Z,1006.4
2017-11-15T06:44:06.136Z,1006.4
2017-11-15T06:45:08.147Z,1006.4
2017-11-15T06:46:10.369Z,1006.4
2017-11-15T06:47:12.402Z,1006.5
2017-11-15T06:48:13.951Z,1006.5
2017-11-15T06:49:15.712Z,1006.5
2017-11-15T06:50:18.917Z,1006.5
2017-11-15T06:52:05.032Z,1006.6
2017-11-15T06:53:08.601Z,1006.6
2017-11-15T06:54:10.605Z,1006.6
2017-11-15T06:55:17.802Z,1006.6
2017-11-15T06:57:15.273Z,1006.6
2017-11-15T06:59:35.656Z,1006.6
2017-11-15T07:06:52.649Z,1006.7
2017-11-15T07:07:53.993Z,1006.7
2017-11-15T07:08:55.633Z,1006.7
2017-11-15T07:10:36.632Z,1006.7
2017-11-15T07:11:40.880Z,1006.7
2017-11-15T07:12:42.454Z,1006.7
2017-11-15T07:13:44.163Z,1006.6
2017-11-15T07:14:46.089Z,1006.7
2017-11-15T07:15:47.587Z,1006.7
2017-11-15T07:16:49.121Z,1006.7
2017-11-15T07:17:50.506Z,1006.6
2017-11-15T07:18:51.915Z,1006.7
2017-11-15T07:19:53.308Z,1006.7
2017-11-15T07:20:54.745Z,1006.7
2017-11-15T07:21:56.218Z,1006.7
2017-11-15T07:22:57.806Z,1006.8
2017-11-15T07:23:59.329Z,1006.8
2017-11-15T07:25:00.812Z,1006.9
2017-11-15T07:26:02.462Z,1006.9
2017-11-15T07:27:03.951Z,1006.9
2017-11-15T07:28:05.546Z,1006.9
2017-11-15T07:29:07.044Z,1006.9
2017-11-15T07:30:08.620Z,1006.9
2017-11-15T07:31:10.126Z,1006.9
2017-11-15T07:32:11.704Z,1006.9
2017-11-15T07:33:13.495Z,1006.9
2017-11-15T07:34:15.000Z,1006.9
2017-11-15T07:35:16.496Z,1007.0
2017-11-15T07:36:18.004Z,1006.9
2017-11-15T07:37:19.492Z,1006.9
2017-11-15T07:38:21.834Z,1006.9
2017-11-15T07:39:23.338Z,1007.0
2017-11-15T07:40:24.892Z,1007.0
2017-11-15T07:41:26.343Z,1007.0
2017-11-15T07:42:27.865Z,1007.0
2017-11-15T07:43:29.594Z,1007.0
2017-11-15T07:44:31.147Z,1007.0
2017-11-15T07:45:32.887Z,1007.0
2017-11-15T07:46:34.611Z,1007.0
2017-11-15T07:47:36.126Z,1007.0
2017-11-15T07:48:37.887Z,1007.0
2017-11-15T07:49:39.767Z,1007.0
2017-11-15T07:50:41.526Z,1007.0
2017-11-15T07:51:43.693Z,1007.0
2017-11-15T07:52:45.526Z,1007.0
2017-11-15T07:53:47.375Z,1007.0
2017-11-15T07:54:49.190Z,1007.0
2017-11-15T07:55:50.991Z,1007.0
2017-11-15T07:56:52.527Z,1007.0
2017-11-15T07:57:54.191Z,1007.0
2017-11-15T07:58:55.775Z,1007.0
2017-11-15T07:59:57.433Z,1007.0
2017-11-15T08:00:59.169Z,1007.0
2017-11-15T08:02:00.879Z,1007.0
2017-11-15T08:03:02.976Z,1007.0
2017-11-15T08:04:04.866Z,1007.0
2017-11-15T08:05:07.158Z,1007.0
2017-11-15T08:06:08.928Z,1007.0
2017-11-15T08:07:11.073Z,1007.0
2017-11-15T08:08:12.927Z,1007.0
2017-11-15T08:09:14.751Z,1007.0
2017-11-15T08:10:17.024Z,1007.0
2017-11-15T08:11:18.604Z,1007.0
2017-11-15T08:12:20.334Z,1007.0
2017-11-15T08:13:22.487Z,1007.0
2017-11-15T08:14:25.333Z,1007.1
2017-11-15T08:15:27.912Z,1007.0
2017-11-15T08:16:29.932Z,1007.0
2017-11-15T08:17:32.169Z,1007.0
2017-11-15T08:18:35.006Z,1007.0
2017-11-15T08:19:37.166Z,1007.0
2017-11-15T08:20:38.611Z,1007.0
2017-11-15T08:21:40.370Z,1007.0
2017-11-15T08:22:42.641Z,1007.0
2017-11-15T08:23:45.109Z,1007.0
2017-11-15T08:24:46.913Z,1007.0
2017-11-15T08:25:49.216Z,1007.0
2017-11-15T08:26:51.279Z,1007.0
2017-11-15T08:27:53.622Z,1007.0
2017-11-15T08:28:56.186Z,1007.0
2017-11-15T08:29:58.042Z,1007.0
2017-11-15T08:31:01.284Z,1007.0
2017-11-15T08:32:03.954Z,1007.0
2017-11-15T08:33:10.110Z,1007.0
2017-11-15T08:34:11.771Z,1007.0
2017-11-15T08:35:13.628Z,1007.1
2017-11-15T08:36:15.613Z,1007.0
2017-11-15T08:37:18.855Z,1007.0
2017-11-15T08:38:20.999Z,1007.0
2017-11-15T08:39:23.126Z,1007.1
2017-11-15T08:40:25.303Z,1007.1
2017-11-15T08:41:28.048Z,1007.1
2017-11-15T08:42:30.242Z,1007.1
2017-11-15T08:43:33.296Z,1007.1
2017-11-15T08:44:35.274Z,1007.1
2017-11-15T08:45:37.180Z,1007.2
2017-11-15T08:46:39.243Z,1007.2
2017-11-15T08:47:41.359Z,1007.2
2017-11-15T08:48:43.174Z,1007.2
2017-11-15T08:49:45.282Z,1007.2
2017-11-15T08:50:47.178Z,1007.2
2017-11-15T08:51:48.963Z,1007.2
2017-11-15T08:52:50.769Z,1007.2
2017-11-15T08:53:52.500Z,1007.2
2017-11-15T08:54:54.201Z,1007.2
2017-11-15T08:55:55.853Z,1007.2
2017-11-15T08:56:57.690Z,1007.2
2017-11-15T08:57:59.640Z,1007.3
2017-11-15T08:59:02.060Z,1007.2
2017-11-15T09:00:04.460Z,1007.3
2017-11-15T09:01:08.378Z,1007.3
2017-11-15T09:02:17.372Z,1007.3
2017-11-15T09:03:17.809Z,1007.3
2017-11-15T09:04:20.270Z,1007.3
2017-11-15T09:05:22.032Z,1007.3
2017-11-15T09:06:29.509Z,1007.3
2017-11-15T09:07:31.500Z,1007.3
2017-11-15T09:08:35.160Z,1007.3
2017-11-15T09:09:39.618Z,1007.4
2017-11-15T09:10:41.514Z,1007.3
2017-11-15T09:11:43.677Z,1007.3
2017-11-15T09:12:46.257Z,1007.3
2017-11-15T09:13:48.237Z,1007.4
2017-11-15T09:14:51.068Z,1007.3
2017-11-15T09:15:53.610Z,1007.3
2017-11-15T09:16:55.056Z,1007.3
2017-11-15T09:17:57.523Z,1007.3
2017-11-15T09:18:59.706Z,1007.3
2017-11-15T09:20:01.671Z,1007.3
2017-11-15T09:21:03.689Z,1007.3
2017-11-15T09:22:05.815Z,1007.4
2017-11-15T09:23:07.626Z,1007.4
2017-11-15T09:24:09.946Z,1007.4
2017-11-15T09:25:11.873Z,1007.4
2017-11-15T09:26:13.873Z,1007.3
2017-11-15T09:27:15.819Z,1007.3
2017-11-15T09:28:17.784Z,1007.3
2017-11-15T09:29:24.706Z,1007.3
2017-11-15T09:30:27.741Z,1007.3
2017-11-15T09:31:29.913Z,1007.3
2017-11-15T09:32:32.376Z,1007.3
2017-11-15T09:33:34.681Z,1007.3
2017-11-15T09:34:36.477Z,1007.3
2017-11-15T09:35:38.445Z,1007.3
2017-11-15T09:36:40.568Z,1007.3
2017-11-15T09:37:42.569Z,1007.3
2017-11-15T09:38:44.694Z,1007.3
2017-11-15T09:39:46.489Z,1007.3
2017-11-15T09:40:48.684Z,1007.3
2017-11-15T09:41:50.557Z,1007.3
2017-11-15T09:42:52.581Z,1007.2
2017-11-15T09:43:54.279Z,1007.3
2017-11-15T09:44:57.431Z,1007.3
2017-11-15T09:45:59.587Z,1007.3
2017-11-15T09:47:01.522Z,1007.3
2017-11-15T09:48:03.587Z,1007.3
2017-11-15T09:49:05.650Z,1007.3
2017-11-15T09:50:07.901Z,1007.3
2017-11-15T09:51:10.286Z,1007.2
2017-11-15T09:52:12.989Z,1007.2
2017-11-15T09:53:15.225Z,1007.2
2017-11-15T09:54:17.483Z,1007.2
2017-11-15T09:55:19.642Z,1007.2
2017-11-15T09:56:22.363Z,1007.2
2017-11-15T09:57:24.495Z,1007.2
2017-11-15T09:58:26.277Z,1007.2
2017-11-15T09:59:28.211Z,1007.2
2017-11-15T10:00:30.209Z,1007.3
2017-11-15T10:01:31.957Z,1007.3
2017-11-15T10:02:34.009Z,1007.3
2017-11-15T10:03:35.962Z,1007.3
2017-11-15T10:04:37.841Z,1007.3
2017-11-15T10:05:39.546Z,1007.3
2017-11-15T10:06:41.822Z,1007.3
2017-11-15T10:07:43.946Z,1007.3
2017-11-15T10:08:46.087Z,1007.3
2017-11-15T10:09:48.139Z,1007.3
2017-11-15T10:10:50.215Z,1007.3
2017-11-15T10:11:52.510Z,1007.3
2017-11-15T10:12:54.231Z,1007.3
2017-11-15T10:13:56.343Z,1007.3
2017-11-15T10:14:58.652Z,1007.3
2017-11-15T10:16:00.645Z,1007.3
2017-11-15T10:17:03.471Z,1007.3
2017-11-15T10:18:12.193Z,1007.3
2017-11-15T10:19:14.608Z,1007.3
2017-11-15T10:20:16.933Z,1007.3
2017-11-15T10:21:20.321Z,1007.3
2017-11-15T10:22:22.260Z,1007.3
2017-11-15T10:23:24.500Z,1007.3
2017-11-15T10:24:26.835Z,1007.3
2017-11-15T10:25:36.378Z,1007.3
2017-11-15T10:26:38.226Z,1007.3
2017-11-15T10:27:40.414Z,1007.3
2017-11-15T10:28:43.225Z,1007.2
2017-11-15T10:29:45.282Z,1007.3
2017-11-15T10:30:47.875Z,1007.2
2017-11-15T10:31:50.678Z,1007.2
2017-11-15T10:32:52.634Z,1007.2
2017-11-15T10:33:54.568Z,1007.2
2017-11-15T10:34:56.610Z,1007.2
2017-11-15T10:35:58.486Z,1007.2
2017-11-15T10:37:00.460Z,1007.2
2017-11-15T10:38:02.514Z,1007.2
2017-11-15T10:39:04.452Z,1007.2
2017-11-15T10:40:06.275Z,1007.1
2017-11-15T10:41:08.225Z,1007.1
2017-11-15T10:42:09.751Z,1007.1
2017-11-15T10:43:11.815Z,1007.1
2017-11-15T10:44:13.567Z,1007.1
2017-11-15T10:45:15.322Z,1007.0
2017-11-15T10:46:17.104Z,1007.0
2017-11-15T10:47:18.986Z,1007.0
2017-11-15T10:48:20.742Z,1007.0
2017-11-15T10:49:22.645Z,1007.0
2017-11-15T10:50:25.312Z,1007.0
2017-11-15T10:51:26.990Z,1007.0
2017-11-15T10:52:28.917Z,1007.0
2017-11-15T10:53:30.779Z,1007.0
2017-11-15T10:54:32.644Z,1007.0
2017-11-15T10:55:34.646Z,1007.0
2017-11-15T10:56:36.480Z,1007.0
2017-11-15T10:57:38.451Z,1007.0
2017-11-15T10:58:40.353Z,1007.0
2017-11-15T10:59:42.242Z,1007.0
2017-11-15T11:00:44.170Z,1006.9
2017-11-15T11:01:45.961Z,1006.9
2017-11-15T11:02:48.090Z,1006.9
2017-11-15T11:03:50.099Z,1006.9
2017-11-15T11:04:51.887Z,1007.0
2017-11-15T11:05:53.854Z,1006.9
2017-11-15T11:06:55.665Z,1006.9
2017-11-15T11:07:57.814Z,1006.9
2017-11-15T11:08:59.732Z,1006.9
2017-11-15T11:10:01.461Z,1007.0
2017-11-15T11:11:03.475Z,1007.0
2017-11-15T11:12:05.429Z,1007.0
2017-11-15T11:13:07.280Z,1007.0
2017-11-15T11:14:09.018Z,1006.9
2017-11-15T11:15:11.112Z,1006.9
2017-11-15T11:16:13.131Z,1007.0
2017-11-15T11:17:15.088Z,1006.9
2017-11-15T11:18:17.048Z,1006.9
2017-11-15T11:19:18.793Z,1006.9
2017-11-15T11:20:20.790Z,1006.9
2017-11-15T11:21:22.611Z,1006.9
2017-11-15T11:22:24.374Z,1006.8
2017-11-15T11:23:26.231Z,1006.8
2017-11-15T11:24:28.075Z,1006.8
2017-11-15T11:25:30.055Z,1006.8
2017-11-15T11:26:31.894Z,1006.8
2017-11-15T11:27:33.597Z,1006.8
2017-11-15T11:28:35.463Z,1006.8
2017-11-15T11:29:37.093Z,1006.8
2017-11-15T11:30:38.893Z,1006.8
2017-11-15T11:31:40.559Z,1006.8
2017-11-15T11:32:42.261Z,1006.8
2017-11-15T11:33:44.060Z,1006.8
2017-11-15T11:34:45.775Z,1006.8
2017-11-15T11:35:47.596Z,1006.8
2017-11-15T11:36:55.139Z,1006.8
2017-11-15T11:37:56.209Z,1006.8
2017-11-15T11:38:58.039Z,1006.8
2017-11-15T11:39:59.851Z,1006.8
2017-11-15T11:41:01.590Z,1006.9
2017-11-15T11:42:03.303Z,1006.8
2017-11-15T11:43:19.875Z,1006.8
2017-11-15T11:44:20.402Z,1006.8
2017-11-15T11:45:22.227Z,1006.8
2017-11-15T11:46:23.937Z,1006.7
2017-11-15T11:47:25.667Z,1006.7
2017-11-15T11:48:27.405Z,1006.7
2017-11-15T11:49:29.252Z,1006.7
2017-11-15T11:50:31.013Z,1006.7
2017-11-15T11:51:32.717Z,1006.7
2017-11-15T11:52:34.512Z,1006.7
2017-11-15T11:53:36.250Z,1006.7
2017-11-15T11:54:37.982Z,1006.7
2017-11-15T11:55:50.691Z,1006.7
2017-11-15T11:56:51.044Z,1006.7
2017-11-15T11:57:52.806Z,1006.7
2017-11-15T11:58:54.587Z,1006.7
2017-11-15T11:59:56.286Z,1006.7
2017-11-15T12:00:58.124Z,1006.7
2017-11-15T12:01:59.877Z,1006.7
2017-11-15T12:03:01.503Z,1006.7
2017-11-15T12:04:12.906Z,1006.7
2017-11-15T12:05:14.442Z,1006.7
2017-11-15T12:06:16.361Z,1006.7
2017-11-15T12:07:18.370Z,1006.7
2017-11-15T12:08:20.577Z,1006.6
2017-11-15T12:09:22.319Z,1006.6
2017-11-15T12:10:24.222Z,1006.6
2017-11-15T12:11:26.002Z,1006.6
2017-11-15T12:12:39.038Z,1006.6
2017-11-15T12:13:40.878Z,1006.6
2017-11-15T12:14:42.629Z,1006.6
2017-11-15T12:15:44.380Z,1006.6
2017-11-15T12:16:46.169Z,1006.6
2017-11-15T12:17:49.545Z,1006.6
2017-11-15T12:18:51.278Z,1006.6
2017-11-15T12:19:53.102Z,1006.5
2017-11-15T12:20:54.859Z,1006.6
2017-11-15T12:21:56.766Z,1006.5
2017-11-15T12:22:58.523Z,1006.5
2017-11-15T12:24:00.411Z,1006.5
2017-11-15T12:25:02.244Z,1006.6
2017-11-15T12:26:05.759Z,1006.6
2017-11-15T12:27:07.607Z,1006.5
2017-11-15T12:28:09.456Z,1006.6
2017-11-15T12:29:11.329Z,1006.6
2017-11-15T12:30:13.059Z,1006.5
2017-11-15T12:31:14.927Z,1006.5
2017-11-15T12:32:16.737Z,1006.6
2017-11-15T12:33:18.594Z,1006.5
2017-11-15T12:34:20.471Z,1006.5
2017-11-15T12:35:22.155Z,1006.5
2017-11-15T12:36:24.240Z,1006.5
2017-11-15T12:37:33.496Z,1006.5
2017-11-15T12:38:35.531Z,1006.5
2017-11-15T12:39:37.548Z,1006.5
2017-11-15T12:40:39.594Z,1006.5
2017-11-15T12:41:41.684Z,1006.5
2017-11-15T12:42:43.770Z,1006.5
2017-11-15T12:43:49.711Z,1006.5
2017-11-15T12:44:51.493Z,1006.5
2017-11-15T12:45:53.358Z,1006.5
2017-11-15T12:46:55.335Z,1006.5
2017-11-15T12:47:57.226Z,1006.5
2017-11-15T12:48:59.247Z,1006.5
2017-11-15T12:50:02.951Z,1006.5
2017-11-15T12:51:04.581Z,1006.5
2017-11-15T12:52:06.683Z,1006.5
2017-11-15T12:53:11.769Z,1006.5
2017-11-15T12:54:16.263Z,1006.5
2017-11-15T12:55:37.421Z,1006.5
2017-11-15T12:56:38.187Z,1006.5
2017-11-15T12:57:40.174Z,1006.5
2017-11-15T12:58:44.425Z,1006.5
2017-11-15T12:59:46.375Z,1006.5
2017-11-15T13:00:48.352Z,1006.5
2017-11-15T13:01:50.771Z,1006.5
2017-11-15T13:02:53.647Z,1006.5
2017-11-15T13:03:55.150Z,1006.5